Adams, Indiana
Current Conditions -  °F | °C
As of 1:45 PM on Sunday 21 Dec 2014 (Local Time) from KBAK Reporting Station
Few Clouds Few Clouds  
Wind Chill: 36°   Ceiling: Unl
Heat Index: 36°   Visibility: 7mi
Dew Point: 30°   Wind: 0mph
Humidity: 81%   Direction: NA
Pressure: 30.22"   Gusts: NA
Location:  39.3206°N, 85.4768°W
Report Text: KBAK 211845Z 00000KT 7SM FEW017 02/M01 A3022
Loading
Personal Weather Stations






























Interactive Weather Map New forecast layout! Learn more

10-Day Weather Forecast

Advertisements
Track Severe Weather on mobile